createdAt,value
2022-11-14T00:00:45.949Z,80.12
2022-11-14T00:03:31.805Z,80.78
2022-11-14T00:06:17.480Z,80.88
2022-11-14T00:09:02.939Z,81.08
2022-11-14T00:11:48.918Z,79.85
2022-11-14T00:14:34.607Z,78.99
2022-11-14T00:17:20.459Z,79.26
2022-11-14T00:20:08.029Z,78.93
2022-11-14T00:22:53.442Z,78.71
2022-11-14T00:25:39.405Z,78.02
2022-11-14T00:28:25.313Z,77.11
2022-11-14T00:31:11.615Z,77.48
2022-11-14T00:33:57.026Z,78.24
2022-11-14T00:36:42.361Z,77.76
2022-11-14T00:39:27.747Z,78.35
2022-11-14T00:42:13.088Z,77.54
2022-11-14T00:44:58.890Z,77.19
2022-11-14T00:47:44.578Z,77.08
2022-11-14T00:50:30.206Z,76.83
2022-11-14T00:53:16.142Z,77.48
2022-11-14T00:56:01.706Z,77.00
2022-11-14T00:58:47.012Z,76.64
2022-11-14T01:01:32.793Z,76.60
2022-11-14T01:04:17.806Z,75.90
2022-11-14T01:07:03.786Z,74.91
2022-11-14T01:09:49.212Z,75.08
2022-11-14T01:12:35.283Z,74.30
2022-11-14T01:15:21.007Z,73.77
2022-11-14T01:18:06.512Z,74.24
2022-11-14T01:20:52.122Z,74.24
2022-11-14T01:23:37.885Z,72.99
2022-11-14T01:26:24.013Z,73.97
2022-11-14T01:29:09.216Z,72.84
2022-11-14T01:31:54.428Z,72.41
2022-11-14T01:34:40.040Z,72.35
2022-11-14T01:37:25.673Z,72.32
2022-11-14T01:40:12.156Z,71.70
2022-11-14T01:43:19.272Z,71.63
2022-11-14T01:46:06.601Z,71.77
2022-11-14T01:49:00.196Z,71.86
2022-11-14T01:51:50.357Z,71.90
2022-11-14T01:54:41.560Z,72.37
2022-11-14T01:57:38.607Z,72.25
2022-11-14T02:00:24.355Z,72.01
2022-11-14T02:03:14.755Z,72.73
2022-11-14T02:06:03.065Z,73.14
2022-11-14T02:08:51.195Z,71.55
2022-11-14T02:11:40.981Z,70.38
2022-11-14T02:14:28.220Z,70.35
2022-11-14T02:17:29.099Z,68.49
2022-11-14T02:20:38.531Z,68.81
2022-11-14T02:23:32.396Z,68.95
2022-11-14T02:26:19.233Z,69.11
2022-11-14T02:29:07.427Z,68.37
2022-11-14T02:31:53.117Z,65.86
2022-11-14T02:34:38.969Z,63.47
2022-11-14T02:37:24.870Z,61.26
2022-11-14T02:40:10.972Z,61.67
2022-11-14T02:42:56.410Z,60.79
2022-11-14T02:45:42.141Z,62.12
2022-11-14T02:48:28.767Z,63.17
2022-11-14T02:51:14.520Z,63.00
2022-11-14T02:54:00.254Z,63.52
2022-11-14T02:56:45.900Z,63.47
2022-11-14T02:59:30.998Z,61.98
2022-11-14T03:02:16.140Z,63.15
2022-11-14T03:05:01.979Z,62.89
2022-11-14T03:07:47.186Z,63.31
2022-11-14T03:10:32.491Z,62.55
2022-11-14T03:13:18.010Z,61.99
2022-11-14T03:16:08.692Z,61.43
2022-11-14T03:18:53.753Z,61.72
2022-11-14T03:21:39.071Z,61.33
2022-11-14T03:24:24.778Z,61.52
2022-11-14T03:27:10.595Z,61.92
2022-11-14T03:29:56.075Z,61.15
2022-11-14T03:32:41.863Z,61.07
2022-11-14T03:35:27.763Z,61.78
2022-11-14T03:38:13.287Z,60.30
2022-11-14T03:41:00.183Z,60.49
2022-11-14T03:43:45.763Z,60.27
2022-11-14T03:46:31.047Z,59.96
2022-11-14T03:49:16.079Z,60.72
2022-11-14T03:52:01.515Z,59.55
2022-11-14T03:54:47.206Z,60.21
2022-11-14T03:57:32.517Z,61.04
2022-11-14T04:00:18.467Z,60.43
2022-11-14T04:03:04.974Z,60.82
2022-11-14T04:05:50.683Z,59.94
2022-11-14T04:08:36.179Z,60.42
2022-11-14T04:11:22.076Z,60.67
2022-11-14T04:14:07.785Z,60.36
2022-11-14T04:16:52.918Z,60.81
2022-11-14T04:19:38.138Z,60.25
2022-11-14T04:22:23.791Z,60.83
2022-11-14T04:25:10.184Z,60.48
2022-11-14T04:27:55.581Z,60.32
2022-11-14T04:30:41.730Z,60.30
2022-11-14T04:33:27.647Z,59.79
2022-11-14T04:36:13.073Z,60.15
2022-11-14T04:38:58.412Z,60.35
2022-11-14T04:41:43.971Z,60.17
2022-11-14T04:44:29.696Z,60.30
2022-11-14T04:47:15.076Z,60.08
2022-11-14T04:50:00.752Z,59.88
2022-11-14T04:52:46.403Z,60.47
2022-11-14T04:55:32.127Z,60.50
2022-11-14T04:58:17.672Z,60.61
2022-11-14T05:01:10.560Z,60.66
2022-11-14T05:03:56.252Z,60.96
2022-11-14T05:06:42.087Z,61.50
2022-11-14T05:09:28.859Z,60.74
2022-11-14T05:12:14.507Z,61.52
2022-11-14T05:15:00.735Z,61.77
2022-11-14T05:17:46.322Z,61.48
2022-11-14T05:20:31.739Z,61.81
2022-11-14T05:23:22.787Z,61.58
2022-11-14T05:26:14.590Z,61.82
2022-11-14T05:29:00.554Z,62.22
2022-11-14T05:31:46.105Z,62.85
2022-11-14T05:34:31.717Z,62.29
2022-11-14T05:37:16.972Z,62.74
2022-11-14T05:40:02.987Z,62.88
2022-11-14T05:42:48.478Z,64.24
2022-11-14T05:45:33.914Z,62.98
2022-11-14T05:48:19.317Z,64.20
2022-11-14T05:51:06.955Z,64.08
2022-11-14T05:53:52.184Z,63.96
2022-11-14T05:56:37.740Z,63.26
2022-11-14T05:59:23.644Z,63.91
2022-11-14T06:02:09.286Z,62.91
2022-11-14T06:04:55.044Z,62.57
2022-11-14T06:07:40.746Z,61.83
2022-11-14T06:10:27.075Z,61.35
2022-11-14T06:13:12.560Z,61.92
2022-11-14T06:16:06.694Z,62.03
2022-11-14T06:18:55.642Z,62.17
2022-11-14T06:21:40.973Z,61.56
2022-11-14T06:24:26.769Z,61.69
2022-11-14T06:27:12.182Z,60.85
2022-11-14T06:29:57.982Z,61.11
2022-11-14T06:32:43.634Z,60.49
2022-11-14T06:35:29.370Z,60.63
2022-11-14T06:38:14.731Z,60.73
2022-11-14T06:41:13.617Z,57.34
2022-11-14T06:43:59.056Z,55.65
2022-11-14T06:46:44.715Z,54.29
2022-11-14T06:49:30.554Z,54.07
2022-11-14T06:52:16.413Z,54.22
2022-11-14T06:55:02.778Z,55.22
2022-11-14T06:57:53.771Z,55.99
2022-11-14T07:00:39.779Z,56.23
2022-11-14T07:03:25.651Z,55.94
2022-11-14T07:06:21.503Z,56.54
2022-11-14T07:09:07.070Z,56.30
2022-11-14T07:11:52.366Z,55.71
2022-11-14T07:14:38.089Z,54.10
2022-11-14T07:17:28.431Z,53.18
2022-11-14T07:20:18.670Z,53.57
2022-11-14T07:23:04.530Z,52.03
2022-11-14T07:25:49.779Z,51.89
2022-11-14T07:28:36.463Z,52.77
2022-11-14T07:31:22.381Z,52.67
2022-11-14T07:34:09.158Z,53.00
2022-11-14T07:36:55.273Z,52.49
2022-11-14T07:39:41.094Z,52.44
2022-11-14T07:42:29.936Z,51.65
2022-11-14T07:45:15.790Z,51.94
2022-11-14T07:48:02.387Z,50.57
2022-11-14T07:50:48.062Z,50.83
2022-11-14T07:53:34.299Z,49.37
2022-11-14T07:56:20.366Z,48.65
2022-11-14T07:59:05.630Z,47.16
2022-11-14T08:01:51.107Z,47.30
2022-11-14T08:04:36.729Z,47.34
2022-11-14T08:07:22.489Z,47.16
2022-11-14T08:10:09.019Z,45.18
2022-11-14T08:13:25.205Z,45.00
2022-11-14T08:16:12.953Z,43.60
2022-11-14T08:18:58.837Z,42.79
2022-11-14T08:21:44.908Z,41.47
2022-11-14T08:24:30.504Z,41.82
2022-11-14T08:27:16.170Z,41.13
2022-11-14T08:30:02.173Z,39.67
2022-11-14T08:32:47.919Z,40.00
2022-11-14T08:35:33.645Z,40.54
2022-11-14T08:38:19.000Z,40.44
2022-11-14T08:41:05.178Z,39.79
2022-11-14T08:43:50.672Z,39.14
2022-11-14T08:46:36.611Z,38.07
2022-11-14T08:49:22.252Z,35.29
2022-11-14T08:52:11.223Z,37.78
2022-11-14T08:55:00.999Z,37.90
2022-11-14T08:57:49.573Z,38.22
2022-11-14T09:00:34.955Z,37.92
2022-11-14T09:03:20.817Z,39.21
2022-11-14T09:06:06.704Z,38.81
2022-11-14T09:08:52.571Z,39.29
2022-11-14T09:11:38.163Z,39.66
2022-11-14T09:14:23.627Z,39.69
2022-11-14T09:17:09.088Z,38.67
2022-11-14T09:19:54.723Z,36.83
2022-11-14T09:22:40.400Z,38.85
2022-11-14T09:25:29.334Z,39.34
2022-11-14T09:28:14.859Z,39.80
2022-11-14T09:31:08.115Z,40.79
2022-11-14T09:33:53.656Z,41.94
2022-11-14T09:36:39.367Z,42.02
2022-11-14T09:39:24.545Z,42.24
2022-11-14T09:42:16.950Z,41.41
2022-11-14T09:45:07.413Z,40.22
2022-11-14T09:47:56.415Z,38.90
2022-11-14T09:50:51.739Z,39.19
2022-11-14T09:53:44.180Z,38.62
2022-11-14T09:56:29.973Z,38.32
2022-11-14T09:59:16.112Z,36.73
2022-11-14T10:02:14.619Z,34.85
2022-11-14T10:05:24.913Z,34.28
2022-11-14T10:08:23.467Z,35.45
2022-11-14T10:11:21.881Z,35.65
2022-11-14T10:14:47.600Z,33.17
2022-11-14T10:18:10.180Z,35.41
2022-11-14T10:21:02.426Z,38.50
2022-11-14T10:24:09.812Z,40.30
2022-11-14T10:27:03.010Z,41.54
2022-11-14T10:30:00.655Z,42.97
2022-11-14T10:33:04.830Z,43.72
2022-11-14T10:36:00.690Z,44.05
2022-11-14T10:38:56.919Z,45.51
2022-11-14T10:41:58.077Z,46.03
2022-11-14T10:44:58.671Z,46.34
2022-11-14T10:47:50.037Z,47.18
2022-11-14T10:50:48.249Z,47.66
2022-11-14T10:54:09.778Z,48.05
2022-11-14T10:56:55.961Z,48.69
2022-11-14T10:59:43.258Z,48.86
2022-11-14T11:02:51.781Z,49.14
2022-11-14T11:05:52.281Z,49.62
2022-11-14T11:09:02.225Z,49.78
2022-11-14T11:12:01.606Z,49.56
2022-11-14T11:14:49.646Z,49.65
2022-11-14T11:17:40.092Z,49.75
2022-11-14T11:20:39.342Z,49.94
2022-11-14T11:23:27.601Z,50.74
2022-11-14T11:26:17.246Z,51.00
2022-11-14T11:29:10.254Z,51.50
2022-11-14T11:32:00.814Z,51.32
2022-11-14T11:34:46.061Z,51.32
2022-11-14T11:37:57.299Z,51.57
2022-11-14T11:40:46.394Z,51.84
2022-11-14T11:43:45.386Z,52.58
2022-11-14T11:46:52.467Z,51.79
2022-11-14T11:49:44.681Z,51.76
2022-11-14T11:52:54.879Z,53.03
2022-11-14T11:55:44.225Z,52.62
2022-11-14T11:58:46.259Z,52.44
2022-11-14T12:01:31.806Z,52.19
2022-11-14T12:04:17.866Z,52.83
2022-11-14T12:07:19.513Z,52.89
2022-11-14T12:10:20.467Z,52.73
2022-11-14T12:13:05.888Z,52.67
2022-11-14T12:16:01.085Z,52.47
2022-11-14T12:19:17.208Z,52.77
2022-11-14T12:22:05.515Z,52.48
2022-11-14T12:24:53.873Z,52.61
2022-11-14T12:28:10.971Z,52.81
2022-11-14T12:31:01.035Z,52.26
2022-11-14T12:34:03.111Z,52.39
2022-11-14T12:36:48.703Z,52.65
2022-11-14T12:39:34.179Z,52.84
2022-11-14T12:42:21.251Z,52.76
2022-11-14T12:45:36.093Z,53.00
2022-11-14T12:48:27.566Z,53.11
2022-11-14T12:51:25.529Z,53.04
2022-11-14T12:54:43.534Z,53.64
2022-11-14T12:57:50.128Z,53.54
2022-11-14T13:01:01.613Z,53.77
2022-11-14T13:03:49.741Z,53.97
2022-11-14T13:06:35.280Z,54.98
2022-11-14T13:09:32.441Z,54.31
2022-11-14T13:12:49.915Z,54.86
2022-11-14T13:16:07.448Z,54.53
2022-11-14T13:19:34.517Z,54.92
2022-11-14T13:22:37.249Z,55.08
2022-11-14T13:25:24.007Z,55.02
2022-11-14T13:28:44.001Z,55.48
2022-11-14T13:31:35.418Z,55.50
2022-11-14T13:34:29.552Z,55.31
2022-11-14T13:37:45.800Z,55.69
2022-11-14T13:40:37.243Z,55.52
2022-11-14T13:43:44.273Z,55.92
2022-11-14T13:46:36.200Z,56.54
2022-11-14T13:49:52.656Z,56.86
2022-11-14T13:52:44.895Z,56.62
2022-11-14T13:55:52.234Z,56.62
2022-11-14T13:58:58.833Z,56.81
2022-11-14T14:01:52.088Z,56.56
2022-11-14T14:04:46.403Z,57.19
2022-11-14T14:07:49.696Z,57.24
2022-11-14T14:10:53.378Z,56.93
2022-11-14T14:14:19.746Z,57.62
2022-11-14T14:17:22.780Z,57.17
2022-11-14T14:20:44.692Z,57.71
2022-11-14T14:23:35.615Z,57.89
2022-11-14T14:26:32.500Z,57.92
2022-11-14T14:30:02.406Z,58.53
2022-11-14T14:33:07.597Z,58.65
2022-11-14T14:35:54.571Z,58.97
2022-11-14T14:38:40.458Z,59.37
2022-11-14T14:41:31.174Z,59.33
2022-11-14T14:44:24.501Z,59.14
2022-11-14T14:47:17.276Z,58.79
2022-11-14T14:50:06.456Z,59.56
2022-11-14T14:53:00.205Z,59.33
2022-11-14T14:56:01.722Z,59.72
2022-11-14T14:58:47.837Z,59.04
2022-11-14T15:01:35.722Z,59.59
2022-11-14T15:04:23.376Z,59.86
2022-11-14T15:07:24.059Z,59.78
2022-11-14T15:10:22.786Z,59.38
2022-11-14T15:13:14.547Z,59.63
2022-11-14T15:16:00.681Z,59.02
2022-11-14T15:18:48.215Z,58.32
2022-11-14T15:21:33.757Z,58.09
2022-11-14T15:24:22.235Z,58.26
2022-11-14T15:27:16.907Z,58.27
2022-11-14T15:30:06.967Z,57.40
2022-11-14T15:32:54.983Z,57.59
2022-11-14T15:35:41.299Z,57.16
2022-11-14T15:38:44.355Z,57.43
2022-11-14T15:41:32.456Z,56.99
2022-11-14T15:44:33.069Z,56.31
2022-11-14T15:47:25.172Z,56.20
2022-11-14T15:50:13.362Z,56.11
2022-11-14T15:53:04.125Z,55.87
2022-11-14T15:55:50.249Z,55.75
2022-11-14T15:58:36.025Z,55.72
2022-11-14T16:01:26.189Z,55.59
2022-11-14T16:04:18.843Z,54.99
2022-11-14T16:07:05.090Z,54.38
2022-11-14T16:09:51.058Z,54.31
2022-11-14T16:12:36.356Z,54.41
2022-11-14T16:15:22.465Z,54.70
2022-11-14T16:18:08.301Z,55.10
2022-11-14T16:20:58.888Z,54.13
2022-11-14T16:23:44.188Z,54.06
2022-11-14T16:26:30.445Z,54.58
2022-11-14T16:29:16.535Z,54.22
2022-11-14T16:32:03.711Z,54.54
2022-11-14T16:34:49.238Z,54.98
2022-11-14T16:37:34.538Z,54.71
2022-11-14T16:40:23.227Z,54.50
2022-11-14T16:43:13.320Z,54.34
2022-11-14T16:46:03.633Z,54.49
2022-11-14T16:48:49.692Z,54.56
2022-11-14T16:51:51.106Z,54.64
2022-11-14T16:54:37.099Z,54.67
2022-11-14T16:57:22.655Z,54.72
2022-11-14T17:00:12.520Z,54.49
2022-11-14T17:02:58.246Z,54.39
2022-11-14T17:05:51.750Z,54.41
2022-11-14T17:08:37.650Z,54.26
2022-11-14T17:11:24.092Z,52.89
2022-11-14T17:14:28.336Z,53.98
2022-11-14T17:17:14.091Z,53.94
2022-11-14T17:20:00.180Z,53.25
2022-11-14T17:22:45.998Z,53.30
2022-11-14T17:25:31.692Z,53.28
2022-11-14T17:28:17.304Z,53.63
2022-11-14T17:31:11.552Z,53.24
2022-11-14T17:33:58.917Z,53.16
2022-11-14T17:36:44.730Z,52.93
2022-11-14T17:39:30.490Z,53.10
2022-11-14T17:42:16.016Z,53.08
2022-11-14T17:45:02.058Z,53.01
2022-11-14T17:47:47.691Z,53.15
2022-11-14T17:50:37.425Z,52.81
2022-11-14T17:53:23.104Z,53.02
2022-11-14T17:56:13.385Z,53.26
2022-11-14T17:58:59.223Z,53.02
2022-11-14T18:01:44.990Z,53.00
2022-11-14T18:04:31.928Z,52.78
2022-11-14T18:07:17.638Z,52.84
2022-11-14T18:10:03.550Z,52.59
2022-11-14T18:12:49.022Z,52.39
2022-11-14T18:15:35.211Z,52.90
2022-11-14T18:18:20.529Z,52.64
2022-11-14T18:21:13.040Z,52.69
2022-11-14T18:24:00.157Z,52.41
2022-11-14T18:26:45.849Z,52.46
2022-11-14T18:29:31.242Z,52.20
2022-11-14T18:32:17.089Z,52.30
2022-11-14T18:35:02.539Z,52.02
2022-11-14T18:37:48.487Z,51.70
2022-11-14T18:40:34.004Z,51.99
2022-11-14T18:43:19.308Z,52.12
2022-11-14T18:46:10.135Z,51.75
2022-11-14T18:48:57.454Z,51.79
2022-11-14T18:51:43.117Z,50.97
2022-11-14T18:54:28.856Z,50.68
2022-11-14T18:57:14.834Z,51.07
2022-11-14T19:00:00.391Z,51.04
2022-11-14T19:02:55.012Z,50.83
2022-11-14T19:05:40.571Z,51.61
2022-11-14T19:08:26.390Z,50.77
2022-11-14T19:11:33.221Z,50.17
2022-11-14T19:14:20.133Z,49.92
2022-11-14T19:17:07.282Z,49.85
2022-11-14T19:19:56.041Z,49.93
2022-11-14T19:22:41.211Z,49.09
2022-11-14T19:25:27.091Z,49.15
2022-11-14T19:28:13.019Z,49.30
2022-11-14T19:31:06.042Z,48.73
2022-11-14T19:33:51.328Z,48.39
2022-11-14T19:39:42.849Z,48.12
2022-11-14T19:42:28.792Z,48.66
2022-11-14T19:45:14.260Z,47.71
2022-11-14T19:47:59.955Z,47.32
2022-11-14T19:50:45.653Z,48.39
2022-11-14T19:53:34.291Z,48.37
2022-11-14T19:56:20.980Z,48.32
2022-11-14T19:59:13.807Z,48.04
2022-11-14T20:02:00.336Z,48.74
2022-11-14T20:04:46.920Z,48.84
2022-11-14T20:07:35.481Z,48.08
2022-11-14T20:10:21.245Z,48.52
2022-11-14T20:13:07.096Z,47.82
2022-11-14T20:15:52.479Z,48.19
2022-11-14T20:18:37.919Z,48.38
2022-11-14T20:21:25.285Z,47.99
2022-11-14T20:24:12.866Z,48.66
2022-11-14T20:26:58.345Z,48.37
2022-11-14T20:29:43.753Z,48.57
2022-11-14T20:32:30.814Z,49.14
2022-11-14T20:35:16.327Z,48.45
2022-11-14T20:38:04.644Z,48.62
2022-11-14T20:40:55.322Z,48.36
2022-11-14T20:43:41.294Z,48.67
2022-11-14T20:46:26.830Z,48.23
2022-11-14T20:49:12.390Z,48.46
2022-11-14T20:51:57.448Z,48.08
2022-11-14T20:54:43.225Z,48.79
2022-11-14T20:57:30.394Z,48.56
2022-11-14T21:00:16.206Z,48.86
2022-11-14T21:03:02.081Z,48.75
2022-11-14T21:05:47.886Z,48.67
2022-11-14T21:08:35.823Z,49.02
2022-11-14T21:11:22.535Z,48.93
2022-11-14T21:14:09.230Z,49.10
2022-11-14T21:16:54.717Z,49.13
2022-11-14T21:19:40.510Z,49.16
2022-11-14T21:22:26.212Z,48.84
2022-11-14T21:25:11.703Z,48.71
2022-11-14T21:27:57.447Z,48.65
2022-11-14T21:30:42.716Z,49.14
2022-11-14T21:33:30.647Z,48.71
2022-11-14T21:39:23.878Z,48.41
2022-11-14T21:42:11.883Z,48.13
2022-11-14T21:44:59.700Z,47.76
2022-11-14T21:47:45.264Z,47.93
2022-11-14T21:50:32.885Z,47.62
2022-11-14T21:53:18.875Z,47.67
2022-11-14T21:56:19.649Z,47.37
2022-11-14T21:59:13.236Z,47.35
2022-11-14T22:02:18.032Z,47.32
2022-11-14T22:05:03.733Z,47.44
2022-11-14T22:07:49.187Z,46.92
2022-11-14T22:10:34.943Z,47.55
2022-11-14T22:13:20.763Z,46.79
2022-11-14T22:16:08.006Z,47.13
2022-11-14T22:18:53.771Z,47.44
2022-11-14T22:21:39.938Z,47.16
2022-11-14T22:24:25.580Z,47.41
2022-11-14T22:27:11.101Z,47.56
2022-11-14T22:29:56.565Z,47.29
2022-11-14T22:32:42.391Z,47.82
2022-11-14T22:35:28.182Z,47.85
2022-11-14T22:38:13.303Z,47.82
2022-11-14T22:40:59.585Z,47.83
2022-11-14T22:43:45.852Z,47.71
2022-11-14T22:46:31.468Z,47.60
2022-11-14T22:49:21.118Z,46.97
2022-11-14T22:52:06.913Z,47.39
2022-11-14T22:54:52.695Z,47.58
2022-11-14T22:57:39.442Z,47.01
2022-11-14T23:00:24.864Z,47.38
2022-11-14T23:03:10.484Z,47.75
2022-11-14T23:05:56.238Z,47.60
2022-11-14T23:08:42.055Z,47.52
2022-11-14T23:11:30.323Z,47.28
2022-11-14T23:14:15.901Z,48.06
2022-11-14T23:17:01.501Z,47.74
2022-11-14T23:19:46.770Z,48.13
2022-11-14T23:22:32.116Z,48.46
2022-11-14T23:25:17.795Z,48.42
2022-11-14T23:28:03.464Z,48.70
2022-11-14T23:30:48.835Z,48.76
2022-11-14T23:33:35.099Z,49.32
2022-11-14T23:36:21.450Z,49.31
2022-11-14T23:39:07.042Z,49.25
2022-11-14T23:41:52.600Z,49.14
2022-11-14T23:44:38.233Z,49.44
2022-11-14T23:47:23.574Z,49.52
2022-11-14T23:50:10.136Z,49.30
2022-11-14T23:52:55.248Z,48.56
2022-11-14T23:55:42.123Z,49.16
2022-11-14T23:58:28.579Z,49.44
